Terminal Aerodrome Forecast
Issued by NWS

Home | Current Version | Previous Version | Text Only | Print | Product List | Glossary On
Versions: 1 2 3 4 5 6 7 8 9 10 11 12 13 14
000
FTUS46 KSEW 260540
TAFBLI
TAF
KBLI 260540Z 2606/2706 12006KT P6SM -RA OVC040
     FM260900 16010KT P6SM -SHRA BKN035
     FM261200 17012KT P6SM -SHRA BKN030
     FM261900 18014KT P6SM VCSH BKN040
     FM270000 18010KT P6SM BKN040=

USA.gov is the U.S. government's official web portal to all federal, state and local government web resources and services.